sensor_id;sensor_type;location;lat;lon;timestamp;pressure;altitude;pressure_sealevel;temperature;humidity
47366;BME280;33105;47.964;7.982;2024-01-07T00:05:29;96029.16;;;3.22;100.00
47366;BME280;33105;47.964;7.982;2024-01-07T00:09:48;96034.47;;;3.17;100.00
47366;BME280;33105;47.964;7.982;2024-01-07T00:27:16;96036.78;;;3.01;100.00
47366;BME280;33105;47.964;7.982;2024-01-07T00:30:58;96043.00;;;3.02;100.00
47366;BME280;33105;47.964;7.982;2024-01-07T01:00:59;96046.06;;;3.05;100.00
47366;BME280;33105;47.964;7.982;2024-01-07T01:09:09;96045.69;;;3.02;100.00
47366;BME280;33105;47.964;7.982;2024-01-07T01:12:37;96044.03;;;3.01;100.00
47366;BME280;33105;47.964;7.982;2024-01-07T01:21:30;96049.91;;;2.98;100.00
47366;BME280;33105;47.964;7.982;2024-01-07T01:24:35;96049.09;;;2.97;100.00
47366;BME280;33105;47.964;7.982;2024-01-07T01:27:37;96049.75;;;2.81;100.00
47366;BME280;33105;47.964;7.982;2024-01-07T01:30:39;96057.31;;;2.61;100.00
47366;BME280;33105;47.964;7.982;2024-01-07T01:33:44;96063.53;;;2.61;100.00
47366;BME280;33105;47.964;7.982;2024-01-07T01:36:47;96061.66;;;2.62;100.00
47366;BME280;33105;47.964;7.982;2024-01-07T01:39:48;96060.84;;;2.61;100.00
47366;BME280;33105;47.964;7.982;2024-01-07T01:42:54;96057.22;;;2.67;100.00
47366;BME280;33105;47.964;7.982;2024-01-07T01:46:12;96060.28;;;2.71;100.00
47366;BME280;33105;47.964;7.982;2024-01-07T01:49:21;96060.31;;;2.83;100.00
47366;BME280;33105;47.964;7.982;2024-01-07T01:56:49;96052.75;;;2.61;100.00
47366;BME280;33105;47.964;7.982;2024-01-07T01:59:51;96075.81;;;2.57;100.00
47366;BME280;33105;47.964;7.982;2024-01-07T02:02:56;96059.56;;;2.64;100.00
47366;BME280;33105;47.964;7.982;2024-01-07T02:06:34;96056.06;;;2.75;100.00
47366;BME280;33105;47.964;7.982;2024-01-07T02:09:50;96074.50;;;2.78;100.00
47366;BME280;33105;47.964;7.982;2024-01-07T02:13:20;96064.34;;;2.92;100.00
47366;BME280;33105;47.964;7.982;2024-01-07T02:16:35;96070.50;;;2.81;100.00
47366;BME280;33105;47.964;7.982;2024-01-07T02:20:33;96067.34;;;2.84;100.00
47366;BME280;33105;47.964;7.982;2024-01-07T02:24:06;96069.00;;;2.85;100.00
47366;BME280;33105;47.964;7.982;2024-01-07T02:27:32;96067.13;;;2.85;100.00
47366;BME280;33105;47.964;7.982;2024-01-07T02:30:34;96069.22;;;2.83;100.00
47366;BME280;33105;47.964;7.982;2024-01-07T02:34:04;96076.03;;;2.86;100.00
47366;BME280;33105;47.964;7.982;2024-01-07T02:37:20;96076.03;;;2.86;100.00
47366;BME280;33105;47.964;7.982;2024-01-07T02:40:57;96071.00;;;2.89;100.00
47366;BME280;33105;47.964;7.982;2024-01-07T02:44:09;96075.91;;;2.81;100.00
47366;BME280;33105;47.964;7.982;2024-01-07T02:47:14;96071.75;;;2.66;100.00
47366;BME280;33105;47.964;7.982;2024-01-07T02:50:19;96073.66;;;2.78;100.00
47366;BME280;33105;47.964;7.982;2024-01-07T02:53:52;96069.81;;;2.85;100.00
47366;BME280;33105;47.964;7.982;2024-01-07T02:58:13;96067.81;;;2.81;100.00
47366;BME280;33105;47.964;7.982;2024-01-07T03:01:24;96072.97;;;2.70;100.00
47366;BME280;33105;47.964;7.982;2024-01-07T03:04:26;96075.16;;;2.73;100.00
47366;BME280;33105;47.964;7.982;2024-01-07T03:07:28;96068.47;;;2.64;100.00
47366;BME280;33105;47.964;7.982;2024-01-07T03:10:29;96068.03;;;2.67;100.00
47366;BME280;33105;47.964;7.982;2024-01-07T03:13:31;96070.81;;;2.72;100.00
47366;BME280;33105;47.964;7.982;2024-01-07T03:16:32;96075.28;;;2.67;100.00
47366;BME280;33105;47.964;7.982;2024-01-07T03:19:34;96069.56;;;2.75;100.00
47366;BME280;33105;47.964;7.982;2024-01-07T03:23:18;96075.44;;;2.84;100.00
47366;BME280;33105;47.964;7.982;2024-01-07T03:26:29;96074.25;;;2.80;100.00
47366;BME280;33105;47.964;7.982;2024-01-07T03:29:42;96083.00;;;2.63;100.00
47366;BME280;33105;47.964;7.982;2024-01-07T03:33:05;96080.69;;;2.79;100.00
47366;BME280;33105;47.964;7.982;2024-01-07T03:36:20;96078.56;;;2.69;100.00
47366;BME280;33105;47.964;7.982;2024-01-07T03:40:18;96080.47;;;2.80;100.00
47366;BME280;33105;47.964;7.982;2024-01-07T03:43:43;96089.00;;;2.65;100.00
47366;BME280;33105;47.964;7.982;2024-01-07T03:47:12;96088.03;;;2.60;100.00
47366;BME280;33105;47.964;7.982;2024-01-07T03:50:19;96094.78;;;2.51;100.00
47366;BME280;33105;47.964;7.982;2024-01-07T03:54:03;96088.41;;;2.63;100.00
47366;BME280;33105;47.964;7.982;2024-01-07T03:56:57;96085.41;;;2.53;100.00
47366;BME280;33105;47.964;7.982;2024-01-07T04:00:05;96089.75;;;2.54;100.00
47366;BME280;33105;47.964;7.982;2024-01-07T04:03:19;96092.31;;;2.49;100.00
47366;BME280;33105;47.964;7.982;2024-01-07T04:06:21;96088.94;;;2.54;100.00
47366;BME280;33105;47.964;7.982;2024-01-07T04:09:31;96084.28;;;2.61;100.00
47366;BME280;33105;47.964;7.982;2024-01-07T04:12:52;96084.91;;;2.74;100.00
47366;BME280;33105;47.964;7.982;2024-01-07T04:16:21;96091.25;;;2.68;100.00
47366;BME280;33105;47.964;7.982;2024-01-07T04:19:29;96097.91;;;2.66;100.00
47366;BME280;33105;47.964;7.982;2024-01-07T04:26:47;96096.41;;;2.70;100.00
47366;BME280;33105;47.964;7.982;2024-01-07T04:29:49;96101.09;;;2.74;100.00
47366;BME280;33105;47.964;7.982;2024-01-07T04:33:41;96097.16;;;2.89;100.00
47366;BME280;33105;47.964;7.982;2024-01-07T04:50:44;96106.41;;;2.81;100.00
47366;BME280;33105;47.964;7.982;2024-01-07T04:54:34;96110.50;;;2.72;100.00
47366;BME280;33105;47.964;7.982;2024-01-07T04:58:25;96112.47;;;2.77;100.00
47366;BME280;33105;47.964;7.982;2024-01-07T05:05:57;96111.50;;;3.01;100.00
47366;BME280;33105;47.964;7.982;2024-01-07T05:10:27;96110.19;;;2.92;100.00
47366;BME280;33105;47.964;7.982;2024-01-07T05:18:00;96125.84;;;2.71;100.00
47366;BME280;33105;47.964;7.982;2024-01-07T05:21:27;96121.50;;;2.70;100.00
47366;BME280;33105;47.964;7.982;2024-01-07T05:24:53;96126.41;;;2.73;100.00
47366;BME280;33105;47.964;7.982;2024-01-07T05:35:27;96128.06;;;2.74;100.00
47366;BME280;33105;47.964;7.982;2024-01-07T05:38:42;96136.91;;;2.82;100.00
47366;BME280;33105;47.964;7.982;2024-01-07T05:41:43;96131.47;;;2.70;100.00
47366;BME280;33105;47.964;7.982;2024-01-07T05:45:50;96139.06;;;2.91;100.00
47366;BME280;33105;47.964;7.982;2024-01-07T05:49:29;96142.44;;;2.87;100.00
47366;BME280;33105;47.964;7.982;2024-01-07T05:53:48;96145.34;;;2.85;100.00
47366;BME280;33105;47.964;7.982;2024-01-07T05:57:13;96153.59;;;2.90;100.00
47366;BME280;33105;47.964;7.982;2024-01-07T06:00:20;96153.69;;;2.84;100.00
47366;BME280;33105;47.964;7.982;2024-01-07T06:03:22;96144.97;;;2.82;100.00
47366;BME280;33105;47.964;7.982;2024-01-07T06:06:24;96150.66;;;2.92;100.00
47366;BME280;33105;47.964;7.982;2024-01-07T06:09:26;96151.03;;;2.95;100.00
47366;BME280;33105;47.964;7.982;2024-01-07T06:12:28;96142.44;;;2.87;100.00
47366;BME280;33105;47.964;7.982;2024-01-07T06:15:33;96150.22;;;2.77;100.00
47366;BME280;33105;47.964;7.982;2024-01-07T06:19:02;96149.56;;;2.81;100.00
47366;BME280;33105;47.964;7.982;2024-01-07T06:22:14;96158.94;;;2.79;100.00
47366;BME280;33105;47.964;7.982;2024-01-07T06:25:27;96162.81;;;2.83;100.00
47366;BME280;33105;47.964;7.982;2024-01-07T06:28:43;96158.75;;;2.92;100.00
47366;BME280;33105;47.964;7.982;2024-01-07T06:31:56;96164.00;;;2.87;100.00
47366;BME280;33105;47.964;7.982;2024-01-07T06:35:12;96161.84;;;2.95;100.00
47366;BME280;33105;47.964;7.982;2024-01-07T06:38:44;96172.84;;;2.94;100.00
47366;BME280;33105;47.964;7.982;2024-01-07T06:42:30;96174.16;;;3.03;100.00
47366;BME280;33105;47.964;7.982;2024-01-07T06:45:32;96185.00;;;2.85;100.00
47366;BME280;33105;47.964;7.982;2024-01-07T06:49:12;96184.41;;;2.83;100.00
47366;BME280;33105;47.964;7.982;2024-01-07T06:52:15;96182.75;;;2.82;100.00
47366;BME280;33105;47.964;7.982;2024-01-07T06:55:22;96176.25;;;2.71;100.00
47366;BME280;33105;47.964;7.982;2024-01-07T06:58:26;96185.06;;;2.78;100.00
47366;BME280;33105;47.964;7.982;2024-01-07T07:01:31;96184.34;;;2.71;100.00
47366;BME280;33105;47.964;7.982;2024-01-07T07:04:39;96192.50;;;2.83;100.00
47366;BME280;33105;47.964;7.982;2024-01-07T07:07:44;96198.09;;;2.81;100.00
47366;BME280;33105;47.964;7.982;2024-01-07T07:11:02;96199.84;;;2.76;100.00
47366;BME280;33105;47.964;7.982;2024-01-07T07:18:13;96207.59;;;2.72;100.00
47366;BME280;33105;47.964;7.982;2024-01-07T07:21:17;96201.25;;;2.78;100.00
47366;BME280;33105;47.964;7.982;2024-01-07T07:25:00;96199.84;;;2.76;100.00
47366;BME280;33105;47.964;7.982;2024-01-07T07:28:12;96207.19;;;2.87;100.00
47366;BME280;33105;47.964;7.982;2024-01-07T07:31:23;96218.88;;;2.62;100.00
47366;BME280;33105;47.964;7.982;2024-01-07T07:34:27;96216.78;;;2.64;100.00
47366;BME280;33105;47.964;7.982;2024-01-07T07:37:28;96219.66;;;2.69;100.00
47366;BME280;33105;47.964;7.982;2024-01-07T07:40:33;96224.22;;;2.69;100.00
47366;BME280;33105;47.964;7.982;2024-01-07T07:43:34;96233.13;;;2.69;100.00
47366;BME280;33105;47.964;7.982;2024-01-07T07:46:40;96227.41;;;2.59;100.00
47366;BME280;33105;47.964;7.982;2024-01-07T07:49:42;96239.69;;;2.55;100.00
47366;BME280;33105;47.964;7.982;2024-01-07T07:52:43;96243.28;;;2.49;100.00
47366;BME280;33105;47.964;7.982;2024-01-07T07:55:44;96239.09;;;2.53;100.00
47366;BME280;33105;47.964;7.982;2024-01-07T07:58:56;96240.16;;;2.70;100.00
47366;BME280;33105;47.964;7.982;2024-01-07T08:02:07;96241.06;;;2.64;100.00
47366;BME280;33105;47.964;7.982;2024-01-07T08:05:19;96245.47;;;2.77;100.00
47366;BME280;33105;47.964;7.982;2024-01-07T08:08:28;96250.03;;;2.77;100.00
47366;BME280;33105;47.964;7.982;2024-01-07T08:11:30;96254.47;;;2.71;100.00
47366;BME280;33105;47.964;7.982;2024-01-07T08:14:32;96256.19;;;2.84;100.00
47366;BME280;33105;47.964;7.982;2024-01-07T08:17:33;96254.38;;;2.78;100.00
47366;BME280;33105;47.964;7.982;2024-01-07T08:20:34;96258.28;;;2.63;100.00
47366;BME280;33105;47.964;7.982;2024-01-07T08:23:36;96254.09;;;2.67;100.00
47366;BME280;33105;47.964;7.982;2024-01-07T08:26:38;96261.59;;;2.84;100.00
47366;BME280;33105;47.964;7.982;2024-01-07T08:29:44;96255.97;;;2.85;100.00
47366;BME280;33105;47.964;7.982;2024-01-07T08:32:47;96265.78;;;2.80;100.00
47366;BME280;33105;47.964;7.982;2024-01-07T08:35:49;96267.34;;;2.87;100.00
47366;BME280;33105;47.964;7.982;2024-01-07T08:38:59;96271.53;;;2.83;100.00
47366;BME280;33105;47.964;7.982;2024-01-07T08:42:01;96263.00;;;2.68;100.00
47366;BME280;33105;47.964;7.982;2024-01-07T08:49:02;96269.06;;;2.82;100.00
47366;BME280;33105;47.964;7.982;2024-01-07T08:52:10;96271.91;;;2.87;100.00
47366;BME280;33105;47.964;7.982;2024-01-07T08:55:12;96271.97;;;2.98;100.00
47366;BME280;33105;47.964;7.982;2024-01-07T08:58:57;96278.06;;;2.94;100.00
47366;BME280;33105;47.964;7.982;2024-01-07T09:02:21;96288.63;;;2.77;100.00
47366;BME280;33105;47.964;7.982;2024-01-07T09:05:25;96282.03;;;2.73;100.00
47366;BME280;33105;47.964;7.982;2024-01-07T09:08:27;96285.91;;;2.59;100.00
47366;BME280;33105;47.964;7.982;2024-01-07T09:11:31;96282.84;;;2.73;100.00
47366;BME280;33105;47.964;7.982;2024-01-07T09:14:38;96289.44;;;2.78;100.00
47366;BME280;33105;47.964;7.982;2024-01-07T09:17:40;96301.59;;;2.87;100.00
47366;BME280;33105;47.964;7.982;2024-01-07T09:20:50;96297.84;;;2.88;100.00
47366;BME280;33105;47.964;7.982;2024-01-07T09:24:36;96304.88;;;3.07;100.00
47366;BME280;33105;47.964;7.982;2024-01-07T09:27:20;96300.25;;;3.14;100.00
47366;BME280;33105;47.964;7.982;2024-01-07T09:30:33;96308.63;;;3.06;100.00
47366;BME280;33105;47.964;7.982;2024-01-07T09:34:28;96304.88;;;3.07;100.00
47366;BME280;33105;47.964;7.982;2024-01-07T09:37:47;96309.38;;;3.13;100.00
47366;BME280;33105;47.964;7.982;2024-01-07T09:40:57;96313.44;;;2.86;100.00
47366;BME280;33105;47.964;7.982;2024-01-07T09:44:01;96316.56;;;3.01;100.00
47366;BME280;33105;47.964;7.982;2024-01-07T09:47:31;96314.31;;;2.98;100.00
47366;BME280;33105;47.964;7.982;2024-01-07T09:51:15;96317.50;;;2.95;100.00
47366;BME280;33105;47.964;7.982;2024-01-07T09:58:31;96315.31;;;3.03;100.00
47366;BME280;33105;47.964;7.982;2024-01-07T10:02:23;96319.28;;;3.19;100.00
47366;BME280;33105;47.964;7.982;2024-01-07T10:05:42;96321.16;;;3.00;100.00
47366;BME280;33105;47.964;7.982;2024-01-07T10:13:31;96317.19;;;3.21;100.00
47366;BME280;33105;47.964;7.982;2024-01-07T10:16:43;96314.38;;;3.28;100.00
47366;BME280;33105;47.964;7.982;2024-01-07T10:24:19;96320.47;;;3.23;100.00
47366;BME280;33105;47.964;7.982;2024-01-07T10:27:25;96319.88;;;3.21;100.00
47366;BME280;33105;47.964;7.982;2024-01-07T10:31:17;96316.78;;;3.36;100.00
47366;BME280;33105;47.964;7.982;2024-01-07T10:34:59;96315.06;;;3.23;100.00
47366;BME280;33105;47.964;7.982;2024-01-07T10:38:39;96315.28;;;3.40;100.00
47366;BME280;33105;47.964;7.982;2024-01-07T10:42:04;96316.84;;;3.29;100.00
47366;BME280;33105;47.964;7.982;2024-01-07T10:45:12;96319.28;;;3.19;100.00
47366;BME280;33105;47.964;7.982;2024-01-07T10:48:36;96312.81;;;3.38;100.00
47366;BME280;33105;47.964;7.982;2024-01-07T11:41:46;96283.69;;;3.70;100.00
47366;BME280;33105;47.964;7.982;2024-01-07T11:45:25;96290.25;;;3.74;100.00
47366;BME280;33105;47.964;7.982;2024-01-07T11:58:40;96282.91;;;3.82;100.00
47366;BME280;33105;47.964;7.982;2024-01-07T12:25:25;96303.72;;;3.33;100.00
47366;BME280;33105;47.964;7.982;2024-01-07T12:48:51;96297.25;;;3.52;100.00
47366;BME280;33105;47.964;7.982;2024-01-07T13:08:40;96310.28;;;3.55;100.00
47366;BME280;33105;47.964;7.982;2024-01-07T13:23:08;96313.75;;;3.74;100.00
47366;BME280;33105;47.964;7.982;2024-01-07T13:27:39;96311.56;;;3.83;100.00
47366;BME280;33105;47.964;7.982;2024-01-07T13:35:46;96313.91;;;3.79;100.00
47366;BME280;33105;47.964;7.982;2024-01-07T13:53:19;96317.66;;;3.78;100.00
47366;BME280;33105;47.964;7.982;2024-01-07T13:58:11;96317.00;;;3.94;100.00
47366;BME280;33105;47.964;7.982;2024-01-07T14:10:08;96334.50;;;3.62;100.00
47366;BME280;33105;47.964;7.982;2024-01-07T14:19:07;96340.88;;;3.67;100.00
47366;BME280;33105;47.964;7.982;2024-01-07T14:22:20;96348.88;;;3.74;100.00
47366;BME280;33105;47.964;7.982;2024-01-07T14:25:40;96347.13;;;3.68;100.00
47366;BME280;33105;47.964;7.982;2024-01-07T14:34:23;96356.38;;;3.72;100.00
47366;BME280;33105;47.964;7.982;2024-01-07T14:38:37;96374.16;;;3.31;100.00
47366;BME280;33105;47.964;7.982;2024-01-07T14:42:14;96371.84;;;2.73;100.00
47366;BME280;33105;47.964;7.982;2024-01-07T14:45:15;96372.44;;;2.57;100.00
47366;BME280;33105;47.964;7.982;2024-01-07T14:48:17;96379.63;;;2.14;100.00
47366;BME280;33105;47.964;7.982;2024-01-07T14:51:19;96380.31;;;2.02;100.00
47366;BME280;33105;47.964;7.982;2024-01-07T14:54:21;96380.09;;;2.04;100.00
47366;BME280;33105;47.964;7.982;2024-01-07T14:57:23;96388.84;;;1.99;100.00
47366;BME280;33105;47.964;7.982;2024-01-07T15:00:24;96390.81;;;1.79;100.00
47366;BME280;33105;47.964;7.982;2024-01-07T15:03:26;96394.31;;;1.86;100.00
47366;BME280;33105;47.964;7.982;2024-01-07T15:06:27;96404.56;;;1.71;100.00
47366;BME280;33105;47.964;7.982;2024-01-07T15:09:28;96404.34;;;1.73;100.00
47366;BME280;33105;47.964;7.982;2024-01-07T15:12:30;96413.50;;;1.58;100.00
47366;BME280;33105;47.964;7.982;2024-01-07T15:15:37;96418.56;;;1.35;100.00
47366;BME280;33105;47.964;7.982;2024-01-07T15:18:38;96421.31;;;1.22;100.00
47366;BME280;33105;47.964;7.982;2024-01-07T15:21:39;96426.09;;;1.20;100.00
47366;BME280;33105;47.964;7.982;2024-01-07T15:24:41;96425.22;;;1.32;100.00
47366;BME280;33105;47.964;7.982;2024-01-07T15:27:42;96432.09;;;1.15;100.00
47366;BME280;33105;47.964;7.982;2024-01-07T15:30:44;96438.31;;;1.16;100.00
47366;BME280;33105;47.964;7.982;2024-01-07T15:33:46;96432.69;;;1.24;100.00
47366;BME280;33105;47.964;7.982;2024-01-07T15:36:47;96441.56;;;1.24;100.00
47366;BME280;33105;47.964;7.982;2024-01-07T15:39:48;96445.34;;;1.10;100.00
47366;BME280;33105;47.964;7.982;2024-01-07T15:42:52;96442.66;;;1.23;100.00
47366;BME280;33105;47.964;7.982;2024-01-07T15:45:53;96447.78;;;1.25;100.00
47366;BME280;33105;47.964;7.982;2024-01-07T15:48:54;96449.22;;;1.34;100.00
47366;BME280;33105;47.964;7.982;2024-01-07T15:51:56;96451.69;;;1.42;100.00
47366;BME280;33105;47.964;7.982;2024-01-07T15:54:58;96456.03;;;1.43;100.00
47366;BME280;33105;47.964;7.982;2024-01-07T15:58:00;96462.41;;;1.49;100.00
47366;BME280;33105;47.964;7.982;2024-01-07T16:01:03;96452.72;;;1.48;100.00
47366;BME280;33105;47.964;7.982;2024-01-07T16:04:04;96465.50;;;1.59;100.00
47366;BME280;33105;47.964;7.982;2024-01-07T16:07:06;96471.00;;;1.77;100.00
47366;BME280;33105;47.964;7.982;2024-01-07T16:10:08;96474.94;;;1.81;100.00
47366;BME280;33105;47.964;7.982;2024-01-07T16:13:10;96478.03;;;1.78;100.00
47366;BME280;33105;47.964;7.982;2024-01-07T16:16:11;96475.97;;;1.80;100.00
47366;BME280;33105;47.964;7.982;2024-01-07T16:19:13;96479.66;;;1.92;100.00
47366;BME280;33105;47.964;7.982;2024-01-07T16:22:14;96487.13;;;1.90;100.00
47366;BME280;33105;47.964;7.982;2024-01-07T16:25:16;96489.00;;;1.90;100.00
47366;BME280;33105;47.964;7.982;2024-01-07T16:28:17;96493.06;;;1.99;100.00
47366;BME280;33105;47.964;7.982;2024-01-07T16:31:19;96501.22;;;1.92;100.00
47366;BME280;33105;47.964;7.982;2024-01-07T16:34:20;96493.34;;;1.84;100.00
47366;BME280;33105;47.964;7.982;2024-01-07T16:37:22;96492.34;;;1.79;100.00
47366;BME280;33105;47.964;7.982;2024-01-07T16:40:23;96496.47;;;1.81;100.00
47366;BME280;33105;47.964;7.982;2024-01-07T16:43:24;96498.31;;;1.87;100.00
47366;BME280;33105;47.964;7.982;2024-01-07T16:46:31;96504.31;;;1.89;100.00
47366;BME280;33105;47.964;7.982;2024-01-07T16:49:32;96507.88;;;1.83;100.00
47366;BME280;33105;47.964;7.982;2024-01-07T16:52:34;96509.31;;;1.79;100.00
47366;BME280;33105;47.964;7.982;2024-01-07T16:55:35;96508.91;;;1.76;100.00
47366;BME280;33105;47.964;7.982;2024-01-07T16:58:37;96513.53;;;1.55;100.00
47366;BME280;33105;47.964;7.982;2024-01-07T17:01:43;96514.19;;;1.51;100.00
47366;BME280;33105;47.964;7.982;2024-01-07T17:04:45;96513.75;;;1.54;100.00
47366;BME280;33105;47.964;7.982;2024-01-07T17:07:46;96528.66;;;1.63;100.00
47366;BME280;33105;47.964;7.982;2024-01-07T17:10:48;96525.94;;;1.69;100.00
47366;BME280;33105;47.964;7.982;2024-01-07T17:13:50;96528.59;;;1.76;100.00
47366;BME280;33105;47.964;7.982;2024-01-07T17:16:51;96542.03;;;1.89;100.00
47366;BME280;33105;47.964;7.982;2024-01-07T17:19:55;96535.84;;;1.82;100.00
47366;BME280;33105;47.964;7.982;2024-01-07T17:22:57;96544.31;;;1.86;100.00
47366;BME280;33105;47.964;7.982;2024-01-07T17:25:58;96544.38;;;1.66;100.00
47366;BME280;33105;47.964;7.982;2024-01-07T17:29:00;96544.41;;;1.53;100.00
47366;BME280;33105;47.964;7.982;2024-01-07T17:32:01;96547.09;;;1.66;100.00
47366;BME280;33105;47.964;7.982;2024-01-07T17:35:02;96542.28;;;1.75;100.00
47366;BME280;33105;47.964;7.982;2024-01-07T17:38:04;96560.13;;;1.69;100.00
47366;BME280;33105;47.964;7.982;2024-01-07T17:41:08;96557.41;;;1.76;100.00
47366;BME280;33105;47.964;7.982;2024-01-07T17:44:11;96573.00;;;1.41;100.00
47366;BME280;33105;47.964;7.982;2024-01-07T17:47:15;96571.16;;;1.15;100.00
47366;BME280;33105;47.964;7.982;2024-01-07T17:50:17;96573.81;;;0.75;100.00
47366;BME280;33105;47.964;7.982;2024-01-07T17:53:18;96583.28;;;0.51;100.00
47366;BME280;33105;47.964;7.982;2024-01-07T17:56:20;96588.53;;;0.05;100.00
47366;BME280;33105;47.964;7.982;2024-01-07T17:59:22;96578.56;;;-0.08;100.00
47366;BME280;33105;47.964;7.982;2024-01-07T18:02:23;96586.78;;;-0.16;100.00
47366;BME280;33105;47.964;7.982;2024-01-07T18:05:25;96581.81;;;-0.19;100.00
47366;BME280;33105;47.964;7.982;2024-01-07T18:08:27;96593.44;;;-0.05;100.00
47366;BME280;33105;47.964;7.982;2024-01-07T18:11:28;96593.19;;;-0.17;100.00
47366;BME280;33105;47.964;7.982;2024-01-07T18:14:30;96595.13;;;-0.04;100.00
47366;BME280;33105;47.964;7.982;2024-01-07T18:17:32;96606.16;;;-0.27;100.00
47366;BME280;33105;47.964;7.982;2024-01-07T18:20:36;96604.38;;;-0.07;100.00
47366;BME280;33105;47.964;7.982;2024-01-07T18:23:39;96610.31;;;-0.18;100.00
47366;BME280;33105;47.964;7.982;2024-01-07T18:26:40;96600.00;;;-0.14;100.00
47366;BME280;33105;47.964;7.982;2024-01-07T18:29:42;96609.72;;;-0.13;100.00
47366;BME280;33105;47.964;7.982;2024-01-07T18:32:43;96612.75;;;-0.29;100.00
47366;BME280;33105;47.964;7.982;2024-01-07T18:35:45;96612.34;;;-0.20;100.00
47366;BME280;33105;47.964;7.982;2024-01-07T18:38:47;96613.78;;;-0.24;100.00
47366;BME280;33105;47.964;7.982;2024-01-07T18:41:48;96616.44;;;-0.30;100.00
47366;BME280;33105;47.964;7.982;2024-01-07T18:44:49;96619.47;;;-0.40;100.00
47366;BME280;33105;47.964;7.982;2024-01-07T18:47:51;96624.69;;;-0.32;100.00
47366;BME280;33105;47.964;7.982;2024-01-07T18:50:53;96622.22;;;-0.33;100.00
47366;BME280;33105;47.964;7.982;2024-01-07T18:53:54;96629.63;;;-0.36;100.00
47366;BME280;33105;47.964;7.982;2024-01-07T18:56:56;96630.97;;;-0.18;100.00
47366;BME280;33105;47.964;7.982;2024-01-07T18:59:58;96629.66;;;-0.29;100.00
47366;BME280;33105;47.964;7.982;2024-01-07T19:03:00;96627.69;;;-0.14;100.00
47366;BME280;33105;47.964;7.982;2024-01-07T19:06:02;96631.88;;;-0.05;100.00
47366;BME280;33105;47.964;7.982;2024-01-07T19:09:07;96641.03;;;-0.27;100.00
47366;BME280;33105;47.964;7.982;2024-01-07T19:12:10;96636.69;;;-0.28;100.00
47366;BME280;33105;47.964;7.982;2024-01-07T19:15:14;96649.09;;;-0.27;100.00
47366;BME280;33105;47.964;7.982;2024-01-07T19:18:18;96644.44;;;-0.12;100.00
47366;BME280;33105;47.964;7.982;2024-01-07T19:21:19;96643.16;;;-0.16;100.00
47366;BME280;33105;47.964;7.982;2024-01-07T19:24:21;96655.13;;;-0.18;100.00
47366;BME280;33105;47.964;7.982;2024-01-07T19:27:23;96657.94;;;-0.33;100.00
47366;BME280;33105;47.964;7.982;2024-01-07T19:30:24;96652.69;;;-0.13;100.00
47366;BME280;33105;47.964;7.982;2024-01-07T19:33:26;96660.22;;;-0.30;100.00
47366;BME280;33105;47.964;7.982;2024-01-07T19:36:29;96667.25;;;-0.29;100.00
47366;BME280;33105;47.964;7.982;2024-01-07T19:39:30;96662.53;;;-0.27;100.00
47366;BME280;33105;47.964;7.982;2024-01-07T19:42:34;96673.72;;;-0.17;100.00
47366;BME280;33105;47.964;7.982;2024-01-07T19:45:36;96673.47;;;-0.22;100.00
47366;BME280;33105;47.964;7.982;2024-01-07T19:48:39;96672.84;;;-0.24;100.00
47366;BME280;33105;47.964;7.982;2024-01-07T19:51:41;96671.28;;;-0.12;100.00
47366;BME280;33105;47.964;7.982;2024-01-07T19:54:42;96680.22;;;-0.05;100.00
47366;BME280;33105;47.964;7.982;2024-01-07T19:57:46;96668.06;;;-0.01;100.00
47366;BME280;33105;47.964;7.982;2024-01-07T20:00:48;96672.84;;;0.11;100.00
47366;BME280;33105;47.964;7.982;2024-01-07T20:03:51;96672.06;;;0.17;100.00
47366;BME280;33105;47.964;7.982;2024-01-07T20:06:53;96678.25;;;0.17;100.00
47366;BME280;33105;47.964;7.982;2024-01-07T20:09:56;96682.66;;;-0.10;100.00
47366;BME280;33105;47.964;7.982;2024-01-07T20:12:57;96684.56;;;-0.04;100.00
47366;BME280;33105;47.964;7.982;2024-01-07T20:16:00;96680.22;;;-0.05;100.00
47366;BME280;33105;47.964;7.982;2024-01-07T20:19:02;96685.00;;;0.00;100.00
47366;BME280;33105;47.964;7.982;2024-01-07T20:22:03;96690.56;;;-0.02;100.00
47366;BME280;33105;47.964;7.982;2024-01-07T20:25:05;96684.31;;;-0.37;100.00
47366;BME280;33105;47.964;7.982;2024-01-07T20:28:08;96684.28;;;-0.43;100.00
47366;BME280;33105;47.964;7.982;2024-01-07T20:31:09;96690.63;;;-0.51;100.00
47366;BME280;33105;47.964;7.982;2024-01-07T20:34:11;96687.50;;;-0.54;100.00
47366;BME280;33105;47.964;7.982;2024-01-07T20:37:12;96693.38;;;-0.65;98.84
47366;BME280;33105;47.964;7.982;2024-01-07T20:40:14;96689.75;;;-0.58;100.00
47366;BME280;33105;47.964;7.982;2024-01-07T20:43:15;96701.69;;;-0.60;100.00
47366;BME280;33105;47.964;7.982;2024-01-07T20:46:19;96702.25;;;-0.65;100.00
47366;BME280;33105;47.964;7.982;2024-01-07T20:49:20;96707.03;;;-0.60;100.00
47366;BME280;33105;47.964;7.982;2024-01-07T20:52:21;96715.53;;;-0.57;99.67
47366;BME280;33105;47.964;7.982;2024-01-07T20:55:24;96720.53;;;-0.54;99.74
47366;BME280;33105;47.964;7.982;2024-01-07T20:58:25;96726.13;;;-0.49;100.00
47366;BME280;33105;47.964;7.982;2024-01-07T21:01:28;96718.28;;;-0.50;100.00
47366;BME280;33105;47.964;7.982;2024-01-07T21:04:30;96712.63;;;-0.34;100.00
47366;BME280;33105;47.964;7.982;2024-01-07T21:07:33;96714.09;;;-0.31;100.00
47366;BME280;33105;47.964;7.982;2024-01-07T21:10:35;96711.88;;;-0.28;100.00
47366;BME280;33105;47.964;7.982;2024-01-07T21:13:37;96724.53;;;-0.43;99.30
47366;BME280;33105;47.964;7.982;2024-01-07T21:16:39;96720.44;;;-0.39;100.00
47366;BME280;33105;47.964;7.982;2024-01-07T21:19:41;96717.63;;;-0.31;100.00
47366;BME280;33105;47.964;7.982;2024-01-07T21:22:42;96725.06;;;-0.54;100.00
47366;BME280;33105;47.964;7.982;2024-01-07T21:25:44;96718.38;;;-0.37;100.00
47366;BME280;33105;47.964;7.982;2024-01-07T21:28:46;96728.88;;;-0.42;100.00
47366;BME280;33105;47.964;7.982;2024-01-07T21:31:47;96729.78;;;-0.56;94.56
47366;BME280;33105;47.964;7.982;2024-01-07T21:34:52;96733.63;;;-0.65;95.04